sensor_id;sensor_type;location;lat;lon;timestamp;pressure;altitude;pressure_sealevel;temperature;humidity
23118;BME280;11728;50.624;6.014;2022-11-23T00:00:37;96481.72;;;8.77;100.00
23118;BME280;11728;50.624;6.014;2022-11-23T00:05:37;96481.72;;;8.77;100.00
23118;BME280;11728;50.624;6.014;2022-11-23T00:10:37;96488.78;;;8.76;100.00
23118;BME280;11728;50.624;6.014;2022-11-23T00:15:39;96497.78;;;8.71;100.00
23118;BME280;11728;50.624;6.014;2022-11-23T00:20:40;96494.34;;;8.69;100.00
23118;BME280;11728;50.624;6.014;2022-11-23T00:25:43;96503.13;;;8.69;100.00
23118;BME280;11728;50.624;6.014;2022-11-23T00:30:48;96497.00;;;8.69;100.00
23118;BME280;11728;50.624;6.014;2022-11-23T00:36:00;96502.13;;;8.72;100.00
23118;BME280;11728;50.624;6.014;2022-11-23T00:41:06;96497.59;;;8.75;100.00
23118;BME280;11728;50.624;6.014;2022-11-23T00:46:21;96488.69;;;8.78;100.00
23118;BME280;11728;50.624;6.014;2022-11-23T00:51:24;96486.91;;;8.78;100.00
23118;BME280;11728;50.624;6.014;2022-11-23T00:56:26;96490.22;;;8.83;100.00
23118;BME280;11728;50.624;6.014;2022-11-23T01:01:32;96490.94;;;8.87;99.72
23118;BME280;11728;50.624;6.014;2022-11-23T01:06:36;96491.75;;;8.87;98.85
23118;BME280;11728;50.624;6.014;2022-11-23T01:11:36;96505.78;;;8.88;98.65
23118;BME280;11728;50.624;6.014;2022-11-23T01:16:38;96499.47;;;8.92;98.23
23118;BME280;11728;50.624;6.014;2022-11-23T01:21:39;96507.34;;;8.92;98.05
23118;BME280;11728;50.624;6.014;2022-11-23T01:26:40;96515.31;;;8.90;97.86
23118;BME280;11728;50.624;6.014;2022-11-23T01:31:41;96506.44;;;8.93;97.65
23118;BME280;11728;50.624;6.014;2022-11-23T01:36:42;96511.56;;;8.96;97.57
23118;BME280;11728;50.624;6.014;2022-11-23T01:41:44;96506.31;;;8.96;97.09
23118;BME280;11728;50.624;6.014;2022-11-23T01:46:46;96505.56;;;8.92;96.84
23118;BME280;11728;50.624;6.014;2022-11-23T01:51:48;96509.84;;;8.95;96.49
23118;BME280;11728;50.624;6.014;2022-11-23T01:56:55;96514.22;;;8.96;96.17
23118;BME280;11728;50.624;6.014;2022-11-23T02:01:57;96529.19;;;8.94;95.97
23118;BME280;11728;50.624;6.014;2022-11-23T02:07:00;96530.00;;;8.96;95.68
23118;BME280;11728;50.624;6.014;2022-11-23T02:12:02;96528.22;;;8.96;95.70
23118;BME280;11728;50.624;6.014;2022-11-23T02:17:06;96537.91;;;8.96;95.27
23118;BME280;11728;50.624;6.014;2022-11-23T02:22:12;96543.19;;;8.94;94.80
23118;BME280;11728;50.624;6.014;2022-11-23T02:27:15;96532.63;;;8.96;94.74
23118;BME280;11728;50.624;6.014;2022-11-23T02:32:20;96536.31;;;8.92;94.42
23118;BME280;11728;50.624;6.014;2022-11-23T02:37:22;96540.66;;;8.93;94.50
23118;BME280;11728;50.624;6.014;2022-11-23T02:42:26;96532.69;;;8.94;94.16
23118;BME280;11728;50.624;6.014;2022-11-23T02:47:27;96541.50;;;8.93;94.26
23118;BME280;11728;50.624;6.014;2022-11-23T02:52:27;96530.19;;;8.91;93.89
23118;BME280;11728;50.624;6.014;2022-11-23T02:57:30;96541.56;;;8.92;93.75
23118;BME280;11728;50.624;6.014;2022-11-23T03:02:30;96542.41;;;8.92;94.07
23118;BME280;11728;50.624;6.014;2022-11-23T03:07:31;96551.97;;;8.95;93.94
23118;BME280;11728;50.624;6.014;2022-11-23T03:12:32;96554.72;;;8.92;94.60
23118;BME280;11728;50.624;6.014;2022-11-23T03:17:34;96554.72;;;8.92;94.68
23118;BME280;11728;50.624;6.014;2022-11-23T03:22:36;96561.06;;;8.88;94.89
23118;BME280;11728;50.624;6.014;2022-11-23T03:27:37;96560.00;;;8.72;96.28
23118;BME280;11728;50.624;6.014;2022-11-23T03:32:38;96555.97;;;8.63;97.34
23118;BME280;11728;50.624;6.014;2022-11-23T03:37:39;96562.22;;;8.61;98.06
23118;BME280;11728;50.624;6.014;2022-11-23T03:42:40;96557.78;;;8.63;98.46
23118;BME280;11728;50.624;6.014;2022-11-23T03:47:40;96563.94;;;8.62;98.36
23118;BME280;11728;50.624;6.014;2022-11-23T03:52:41;96556.97;;;8.61;99.15
23118;BME280;11728;50.624;6.014;2022-11-23T03:57:41;96558.97;;;8.56;99.42
23118;BME280;11728;50.624;6.014;2022-11-23T04:02:43;96564.34;;;8.53;99.72
23118;BME280;11728;50.624;6.014;2022-11-23T04:08:04;96562.50;;;8.55;99.62
23118;BME280;11728;50.624;6.014;2022-11-23T04:13:05;96559.94;;;8.53;99.79
23118;BME280;11728;50.624;6.014;2022-11-23T04:18:05;96559.16;;;8.51;99.63
23118;BME280;11728;50.624;6.014;2022-11-23T04:23:06;96574.19;;;8.48;99.66
23118;BME280;11728;50.624;6.014;2022-11-23T04:28:06;96556.63;;;8.48;99.39
23118;BME280;11728;50.624;6.014;2022-11-23T04:33:07;96554.72;;;8.52;99.03
23118;BME280;11728;50.624;6.014;2022-11-23T04:38:08;96559.94;;;8.53;98.22
23118;BME280;11728;50.624;6.014;2022-11-23T04:43:10;96559.94;;;8.53;98.08
23118;BME280;11728;50.624;6.014;2022-11-23T04:48:12;96558.97;;;8.56;97.68
23118;BME280;11728;50.624;6.014;2022-11-23T04:53:12;96568.59;;;8.55;97.07
23118;BME280;11728;50.624;6.014;2022-11-23T04:58:18;96560.84;;;8.52;96.78
23118;BME280;11728;50.624;6.014;2022-11-23T05:03:24;96567.75;;;8.55;96.63
23118;BME280;11728;50.624;6.014;2022-11-23T05:08:25;96571.22;;;8.55;96.29
23118;BME280;11728;50.624;6.014;2022-11-23T05:13:34;96566.78;;;8.57;96.11
23118;BME280;11728;50.624;6.014;2022-11-23T05:18:36;96568.50;;;8.58;95.18
23118;BME280;11728;50.624;6.014;2022-11-23T05:23:37;96568.50;;;8.58;94.78
23118;BME280;11728;50.624;6.014;2022-11-23T05:28:38;96565.78;;;8.60;94.36
23118;BME280;11728;50.624;6.014;2022-11-23T05:33:39;96566.50;;;8.63;93.68
23118;BME280;11728;50.624;6.014;2022-11-23T05:38:42;96568.22;;;8.64;93.04
23118;BME280;11728;50.624;6.014;2022-11-23T05:43:48;96566.50;;;8.63;92.34
23118;BME280;11728;50.624;6.014;2022-11-23T05:48:55;96557.84;;;8.61;91.99
23118;BME280;11728;50.624;6.014;2022-11-23T05:53:57;96559.75;;;8.58;91.42
23118;BME280;11728;50.624;6.014;2022-11-23T05:59:17;96552.56;;;8.41;91.57
23118;BME280;11728;50.624;6.014;2022-11-23T06:04:23;96547.53;;;8.16;91.47
23118;BME280;11728;50.624;6.014;2022-11-23T06:09:24;96560.63;;;7.96;91.96
23118;BME280;11728;50.624;6.014;2022-11-23T06:14:27;96559.44;;;7.81;92.10
23118;BME280;11728;50.624;6.014;2022-11-23T06:19:27;96565.13;;;7.71;92.48
23118;BME280;11728;50.624;6.014;2022-11-23T06:24:29;96569.09;;;7.60;93.13
23118;BME280;11728;50.624;6.014;2022-11-23T06:29:57;96559.97;;;7.47;93.66
23118;BME280;11728;50.624;6.014;2022-11-23T06:35:00;96553.34;;;7.37;94.54
23118;BME280;11728;50.624;6.014;2022-11-23T06:40:06;96554.31;;;7.34;94.46
23118;BME280;11728;50.624;6.014;2022-11-23T06:45:08;96564.19;;;7.28;94.61
23118;BME280;11728;50.624;6.014;2022-11-23T06:50:10;96567.72;;;7.27;94.37
23118;BME280;11728;50.624;6.014;2022-11-23T06:55:11;96573.22;;;7.21;94.42
23118;BME280;11728;50.624;6.014;2022-11-23T07:00:13;96579.19;;;7.24;94.67
23118;BME280;11728;50.624;6.014;2022-11-23T07:05:15;96586.34;;;7.21;94.39
23118;BME280;11728;50.624;6.014;2022-11-23T07:10:16;96590.66;;;7.22;94.30
23118;BME280;11728;50.624;6.014;2022-11-23T07:15:24;96582.72;;;7.23;93.87
23118;BME280;11728;50.624;6.014;2022-11-23T07:20:26;96586.28;;;7.22;94.06
23118;BME280;11728;50.624;6.014;2022-11-23T07:25:31;96587.22;;;7.21;93.61
23118;BME280;11728;50.624;6.014;2022-11-23T07:30:34;96586.28;;;7.22;93.06
23118;BME280;11728;50.624;6.014;2022-11-23T07:35:38;96597.34;;;7.30;92.04
23118;BME280;11728;50.624;6.014;2022-11-23T07:40:39;96592.28;;;7.26;92.09
23118;BME280;11728;50.624;6.014;2022-11-23T07:45:46;96592.06;;;7.32;91.10
23118;BME280;11728;50.624;6.014;2022-11-23T07:50:53;96598.78;;;7.39;91.53
23118;BME280;11728;50.624;6.014;2022-11-23T07:55:55;96610.88;;;7.43;91.14
23118;BME280;11728;50.624;6.014;2022-11-23T08:00:56;96620.84;;;7.79;90.17
23118;BME280;11728;50.624;6.014;2022-11-23T08:05:57;96618.00;;;8.69;87.40
23118;BME280;11728;50.624;6.014;2022-11-23T08:10:57;96602.94;;;9.69;83.18
23118;BME280;11728;50.624;6.014;2022-11-23T08:15:58;96611.59;;;9.34;80.98
23118;BME280;11728;50.624;6.014;2022-11-23T08:20:59;96601.88;;;9.54;80.28
23118;BME280;11728;50.624;6.014;2022-11-23T08:26:02;96618.34;;;10.14;77.97
23118;BME280;11728;50.624;6.014;2022-11-23T08:31:09;96609.94;;;11.43;74.86
23118;BME280;11728;50.624;6.014;2022-11-23T08:36:14;96616.75;;;12.12;69.79
23118;BME280;11728;50.624;6.014;2022-11-23T08:41:14;96613.56;;;12.36;66.06
23118;BME280;11728;50.624;6.014;2022-11-23T08:46:17;96614.00;;;11.98;66.83
23118;BME280;11728;50.624;6.014;2022-11-23T08:51:17;96632.19;;;12.19;65.22
23118;BME280;11728;50.624;6.014;2022-11-23T08:56:21;96620.31;;;10.63;68.79
23118;BME280;11728;50.624;6.014;2022-11-23T09:01:22;96625.88;;;9.67;73.99
23118;BME280;11728;50.624;6.014;2022-11-23T09:06:23;96628.38;;;10.77;73.80
23118;BME280;11728;50.624;6.014;2022-11-23T09:11:28;96609.25;;;13.09;66.06
23118;BME280;11728;50.624;6.014;2022-11-23T09:16:28;96590.47;;;14.51;60.15
23118;BME280;11728;50.624;6.014;2022-11-23T09:21:29;96601.34;;;12.64;62.92
23118;BME280;11728;50.624;6.014;2022-11-23T09:26:32;96589.59;;;12.24;64.56
23118;BME280;11728;50.624;6.014;2022-11-23T09:31:37;96576.66;;;13.92;61.32
23118;BME280;11728;50.624;6.014;2022-11-23T09:36:37;96559.97;;;15.46;56.64
23118;BME280;11728;50.624;6.014;2022-11-23T09:52:15;96548.53;;;17.23;49.02
23118;BME280;11728;50.624;6.014;2022-11-23T09:57:21;96548.78;;;17.76;48.36
23118;BME280;11728;50.624;6.014;2022-11-23T10:02:24;96535.78;;;18.38;47.54
23118;BME280;11728;50.624;6.014;2022-11-23T10:23:16;96497.28;;;19.73;43.30
23118;BME280;11728;50.624;6.014;2022-11-23T10:28:22;96487.03;;;19.88;42.56
23118;BME280;11728;50.624;6.014;2022-11-23T10:33:32;96487.88;;;19.79;42.44
23118;BME280;11728;50.624;6.014;2022-11-23T10:38:36;96507.50;;;19.59;42.25
23118;BME280;11728;50.624;6.014;2022-11-23T10:48:45;96493.03;;;19.41;41.84
23118;BME280;11728;50.624;6.014;2022-11-23T10:53:56;96487.25;;;19.05;42.60
23118;BME280;11728;50.624;6.014;2022-11-23T10:58:57;96485.81;;;19.01;42.72
23118;BME280;11728;50.624;6.014;2022-11-23T11:04:02;96486.28;;;19.06;42.73
23118;BME280;11728;50.624;6.014;2022-11-23T11:09:18;96481.59;;;18.14;43.70
23118;BME280;11728;50.624;6.014;2022-11-23T11:14:20;96474.97;;;17.86;44.29
23118;BME280;11728;50.624;6.014;2022-11-23T11:19:33;96468.03;;;17.51;44.30
23118;BME280;11728;50.624;6.014;2022-11-23T11:24:41;96466.19;;;18.28;43.30
23118;BME280;11728;50.624;6.014;2022-11-23T11:35:03;96444.50;;;18.94;41.50
23118;BME280;11728;50.624;6.014;2022-11-23T11:40:36;96461.84;;;18.99;41.01
23118;BME280;11728;50.624;6.014;2022-11-23T11:45:46;96446.50;;;18.60;41.22
23118;BME280;11728;50.624;6.014;2022-11-23T11:51:16;96423.56;;;18.16;42.01
23118;BME280;11728;50.624;6.014;2022-11-23T11:56:43;96393.72;;;17.89;41.99
23118;BME280;11728;50.624;6.014;2022-11-23T12:07:03;96370.06;;;17.42;44.96
23118;BME280;11728;50.624;6.014;2022-11-23T12:12:16;96354.06;;;18.27;42.37
23118;BME280;11728;50.624;6.014;2022-11-23T12:17:43;96365.22;;;18.32;42.48
23118;BME280;11728;50.624;6.014;2022-11-23T12:23:20;96353.03;;;17.54;42.71
23118;BME280;11728;50.624;6.014;2022-11-23T12:28:37;96361.41;;;16.84;44.14
23118;BME280;11728;50.624;6.014;2022-11-23T12:49:46;96347.16;;;15.46;47.63
23118;BME280;11728;50.624;6.014;2022-11-23T12:55:14;96362.09;;;15.37;47.62
23118;BME280;11728;50.624;6.014;2022-11-23T13:00:19;96367.97;;;14.17;50.41
23118;BME280;11728;50.624;6.014;2022-11-23T13:21:33;96379.19;;;12.46;56.71
23118;BME280;11728;50.624;6.014;2022-11-23T13:26:35;96373.88;;;12.03;58.32
23118;BME280;11728;50.624;6.014;2022-11-23T13:31:36;96374.97;;;11.99;59.16
23118;BME280;11728;50.624;6.014;2022-11-23T13:36:39;96369.44;;;12.03;59.51
23118;BME280;11728;50.624;6.014;2022-11-23T13:41:57;96361.28;;;11.92;60.28
23118;BME280;11728;50.624;6.014;2022-11-23T13:57:21;96357.28;;;11.56;61.78
23118;BME280;11728;50.624;6.014;2022-11-23T14:02:27;96343.19;;;11.40;62.80
23118;BME280;11728;50.624;6.014;2022-11-23T14:07:37;96364.25;;;11.26;63.61
23118;BME280;11728;50.624;6.014;2022-11-23T14:12:59;96379.44;;;11.07;64.35
23118;BME280;11728;50.624;6.014;2022-11-23T14:44:50;96453.69;;;9.14;85.10
23118;BME280;11728;50.624;6.014;2022-11-23T14:49:51;96475.66;;;9.13;86.61
23118;BME280;11728;50.624;6.014;2022-11-23T14:54:54;96484.69;;;9.08;87.71
23118;BME280;11728;50.624;6.014;2022-11-23T14:59:57;96496.75;;;8.93;89.17
23118;BME280;11728;50.624;6.014;2022-11-23T15:05:07;96511.19;;;8.85;90.14
23118;BME280;11728;50.624;6.014;2022-11-23T15:10:21;96513.38;;;8.75;91.30
23118;BME280;11728;50.624;6.014;2022-11-23T15:15:28;96535.53;;;8.70;92.58
23118;BME280;11728;50.624;6.014;2022-11-23T15:21:06;96550.47;;;8.69;92.42
23118;BME280;11728;50.624;6.014;2022-11-23T15:26:03;96568.56;;;8.57;93.56
23118;BME280;11728;50.624;6.014;2022-11-23T15:31:31;96583.53;;;8.55;94.04
23118;BME280;11728;50.624;6.014;2022-11-23T15:36:35;96587.97;;;8.54;94.05
23118;BME280;11728;50.624;6.014;2022-11-23T15:41:37;96587.53;;;8.43;94.52
23118;BME280;11728;50.624;6.014;2022-11-23T15:46:39;96597.78;;;8.30;95.46
23118;BME280;11728;50.624;6.014;2022-11-23T15:51:42;96611.84;;;8.29;95.48
23118;BME280;11728;50.624;6.014;2022-11-23T15:56:45;96632.25;;;8.22;95.62
23118;BME280;11728;50.624;6.014;2022-11-23T16:01:47;96635.03;;;8.19;95.64
23118;BME280;11728;50.624;6.014;2022-11-23T16:06:48;96643.09;;;8.15;95.90
23118;BME280;11728;50.624;6.014;2022-11-23T16:11:49;96635.34;;;8.10;95.60
23118;BME280;11728;50.624;6.014;2022-11-23T16:16:59;96632.84;;;8.07;96.08
23118;BME280;11728;50.624;6.014;2022-11-23T16:22:04;96634.44;;;8.11;95.97
23118;BME280;11728;50.624;6.014;2022-11-23T16:27:13;96627.63;;;8.06;95.86
23118;BME280;11728;50.624;6.014;2022-11-23T16:32:28;96636.63;;;8.00;96.19
23118;BME280;11728;50.624;6.014;2022-11-23T16:37:29;96642.91;;;7.96;96.10
23118;BME280;11728;50.624;6.014;2022-11-23T16:42:29;96664.50;;;8.04;95.93
23118;BME280;11728;50.624;6.014;2022-11-23T16:47:30;96680.03;;;8.10;95.89
23118;BME280;11728;50.624;6.014;2022-11-23T16:52:31;96688.50;;;8.18;95.37
23118;BME280;11728;50.624;6.014;2022-11-23T16:57:33;96702.66;;;8.14;96.08
23118;BME280;11728;50.624;6.014;2022-11-23T17:02:34;96705.81;;;8.24;95.71
23118;BME280;11728;50.624;6.014;2022-11-23T17:07:35;96710.09;;;8.26;95.68
23118;BME280;11728;50.624;6.014;2022-11-23T17:12:36;96718.78;;;8.28;95.36
23118;BME280;11728;50.624;6.014;2022-11-23T17:17:37;96727.25;;;8.13;96.31
23118;BME280;11728;50.624;6.014;2022-11-23T17:22:37;96732.38;;;8.16;96.51
23118;BME280;11728;50.624;6.014;2022-11-23T17:27:39;96751.50;;;8.21;96.84
23118;BME280;11728;50.624;6.014;2022-11-23T17:32:41;96766.28;;;8.24;97.59
23118;BME280;11728;50.624;6.014;2022-11-23T17:37:41;96771.59;;;8.22;97.99
23118;BME280;11728;50.624;6.014;2022-11-23T17:42:42;96767.69;;;8.09;98.43
23118;BME280;11728;50.624;6.014;2022-11-23T17:47:43;96783.03;;;7.97;100.00
23118;BME280;11728;50.624;6.014;2022-11-23T17:52:45;96791.13;;;7.92;100.00
23118;BME280;11728;50.624;6.014;2022-11-23T17:57:46;96792.81;;;7.93;100.00
23118;BME280;11728;50.624;6.014;2022-11-23T18:02:47;96806.66;;;7.98;100.00
23118;BME280;11728;50.624;6.014;2022-11-23T18:07:48;96813.81;;;7.93;100.00
23118;BME280;11728;50.624;6.014;2022-11-23T18:12:49;96823.56;;;7.91;100.00
23118;BME280;11728;50.624;6.014;2022-11-23T18:17:49;96837.47;;;7.93;100.00
23118;BME280;11728;50.624;6.014;2022-11-23T18:22:50;96847.97;;;7.95;100.00
23118;BME280;11728;50.624;6.014;2022-11-23T18:27:51;96853.91;;;8.00;100.00
23118;BME280;11728;50.624;6.014;2022-11-23T18:32:53;96872.47;;;7.95;100.00
23118;BME280;11728;50.624;6.014;2022-11-23T18:37:53;96879.53;;;7.93;100.00
23118;BME280;11728;50.624;6.014;2022-11-23T18:42:54;96896.75;;;8.02;100.00
23118;BME280;11728;50.624;6.014;2022-11-23T18:47:54;96894.00;;;8.05;100.00
23118;BME280;11728;50.624;6.014;2022-11-23T18:52:55;96918.63;;;8.02;100.00
23118;BME280;11728;50.624;6.014;2022-11-23T18:57:55;96917.81;;;8.00;100.00
23118;BME280;11728;50.624;6.014;2022-11-23T19:02:58;96914.34;;;8.00;100.00
23118;BME280;11728;50.624;6.014;2022-11-23T19:08:04;96930.13;;;8.00;100.00
23118;BME280;11728;50.624;6.014;2022-11-23T19:13:04;96938.44;;;8.12;100.00
23118;BME280;11728;50.624;6.014;2022-11-23T19:18:05;96944.59;;;8.11;100.00
23118;BME280;11728;50.624;6.014;2022-11-23T19:23:05;96955.22;;;8.08;100.00
23118;BME280;11728;50.624;6.014;2022-11-23T19:28:06;96965.72;;;8.08;100.00
23118;BME280;11728;50.624;6.014;2022-11-23T19:33:06;96963.91;;;8.10;100.00
23118;BME280;11728;50.624;6.014;2022-11-23T19:38:07;96979.00;;;8.05;100.00
23118;BME280;11728;50.624;6.014;2022-11-23T19:43:10;96978.84;;;8.10;100.00
23118;BME280;11728;50.624;6.014;2022-11-23T19:48:10;96990.63;;;8.24;100.00
23118;BME280;11728;50.624;6.014;2022-11-23T19:53:11;96993.97;;;8.29;100.00
23118;BME280;11728;50.624;6.014;2022-11-23T19:58:13;97004.97;;;8.40;100.00
23118;BME280;11728;50.624;6.014;2022-11-23T20:03:13;97006.31;;;8.51;100.00
23118;BME280;11728;50.624;6.014;2022-11-23T20:08:14;97014.84;;;8.58;100.00
23118;BME280;11728;50.624;6.014;2022-11-23T20:13:14;97015.03;;;8.52;100.00
23118;BME280;11728;50.624;6.014;2022-11-23T20:18:16;97023.66;;;8.57;100.00
23118;BME280;11728;50.624;6.014;2022-11-23T20:23:17;97030.19;;;8.70;100.00
23118;BME280;11728;50.624;6.014;2022-11-23T20:28:17;97036.84;;;8.80;100.00
23118;BME280;11728;50.624;6.014;2022-11-23T20:33:18;97046.19;;;8.88;100.00
23118;BME280;11728;50.624;6.014;2022-11-23T20:38:19;97054.72;;;8.95;100.00
23118;BME280;11728;50.624;6.014;2022-11-23T20:43:20;97057.13;;;9.01;100.00
23118;BME280;11728;50.624;6.014;2022-11-23T20:48:20;97062.25;;;9.04;100.00
23118;BME280;11728;50.624;6.014;2022-11-23T20:53:21;97067.66;;;9.01;100.00
23118;BME280;11728;50.624;6.014;2022-11-23T20:58:21;97075.50;;;9.02;100.00
23118;BME280;11728;50.624;6.014;2022-11-23T21:03:21;97087.09;;;8.97;100.00
23118;BME280;11728;50.624;6.014;2022-11-23T21:08:22;97082.97;;;8.90;100.00
23118;BME280;11728;50.624;6.014;2022-11-23T21:13:26;97083.13;;;8.85;100.00
23118;BME280;11728;50.624;6.014;2022-11-23T21:18:45;97084.97;;;8.83;100.00
23118;BME280;11728;50.624;6.014;2022-11-23T21:23:46;97081.63;;;8.78;100.00
23118;BME280;11728;50.624;6.014;2022-11-23T21:28:46;97081.78;;;8.74;100.00
23118;BME280;11728;50.624;6.014;2022-11-23T21:33:47;97095.06;;;8.71;100.00
23118;BME280;11728;50.624;6.014;2022-11-23T21:38:47;97107.63;;;8.63;100.00
23118;BME280;11728;50.624;6.014;2022-11-23T21:43:53;97103.97;;;8.67;100.00
23118;BME280;11728;50.624;6.014;2022-11-23T21:48:55;97121.59;;;8.65;100.00
23118;BME280;11728;50.624;6.014;2022-11-23T21:53:57;97121.53;;;8.66;100.00
23118;BME280;11728;50.624;6.014;2022-11-23T21:58:58;97115.50;;;8.63;100.00
23118;BME280;11728;50.624;6.014;2022-11-23T22:04:00;97132.41;;;8.56;100.00
23118;BME280;11728;50.624;6.014;2022-11-23T22:09:02;97135.06;;;8.56;100.00
23118;BME280;11728;50.624;6.014;2022-11-23T22:14:06;97142.03;;;8.57;100.00
23118;BME280;11728;50.624;6.014;2022-11-23T22:19:09;97147.31;;;8.57;100.00
23118;BME280;11728;50.624;6.014;2022-11-23T22:24:13;97145.44;;;8.59;100.00
23118;BME280;11728;50.624;6.014;2022-11-23T22:29:14;97148.16;;;8.57;100.00
23118;BME280;11728;50.624;6.014;2022-11-23T22:34:15;97164.75;;;8.59;100.00
23118;BME280;11728;50.624;6.014;2022-11-23T22:39:15;97162.19;;;8.58;100.00
23118;BME280;11728;50.624;6.014;2022-11-23T22:44:16;97172.03;;;8.51;100.00
23118;BME280;11728;50.624;6.014;2022-11-23T22:49:16;97175.84;;;8.41;100.00
23118;BME280;11728;50.624;6.014;2022-11-23T22:54:18;97185.72;;;8.35;100.00
23118;BME280;11728;50.624;6.014;2022-11-23T22:59:18;97194.53;;;8.34;100.00
23118;BME280;11728;50.624;6.014;2022-11-23T23:04:18;97199.97;;;8.28;100.00
23118;BME280;11728;50.624;6.014;2022-11-23T23:09:19;97205.03;;;8.34;100.00
23118;BME280;11728;50.624;6.014;2022-11-23T23:14:20;97210.31;;;8.34;100.00
23118;BME280;11728;50.624;6.014;2022-11-23T23:19:20;97213.78;;;8.35;100.00
23118;BME280;11728;50.624;6.014;2022-11-23T23:24:21;97207.91;;;8.27;100.00
23118;BME280;11728;50.624;6.014;2022-11-23T23:29:22;97220.19;;;8.26;100.00
23118;BME280;11728;50.624;6.014;2022-11-23T23:34:22;97219.09;;;8.33;100.00
23118;BME280;11728;50.624;6.014;2022-11-23T23:39:23;97215.00;;;8.25;100.00
23118;BME280;11728;50.624;6.014;2022-11-23T23:44:23;97230.91;;;8.20;100.00
23118;BME280;11728;50.624;6.014;2022-11-23T23:49:24;97231.16;;;8.11;100.00
23118;BME280;11728;50.624;6.014;2022-11-23T23:54:25;97231.16;;;8.11;100.00
23118;BME280;11728;50.624;6.014;2022-11-23T23:59:26;97232.16;;;8.07;100.00
